Time;durP1;ratioP1;P1;durP2;ratioP2;P2;SDS_P1;SDS_P2;PMS_P1;PMS_P2;Temp;Humidity;BMP_temperature;BMP_pressure;BME280_temperature;BME280_humidity;BME280_pressure;Samples;Min_cycle;Max_cycle;Signal;HPM_P1;HPM_P2
2022/10/12 00:04:58;;;;;;;9.23;2.10;;;;;;;3.68;100.00;97542.00;10399683;28;20196;-79
2022/10/12 00:09:58;;;;;;;5.60;1.90;;;;;;;3.66;100.00;97541.28;10416831;28;20185;-79
2022/10/12 00:14:58;;;;;;;7.37;2.33;;;;;;;3.72;100.00;97542.63;10417302;28;20200;-79
2022/10/12 00:19:59;;;;;;;7.20;2.20;;;;;;;3.81;100.00;97536.88;10416800;28;20561;-79
2022/10/12 00:24:59;;;;;;;8.03;2.10;;;;;;;3.88;100.00;97539.97;10416952;28;20250;-79
2022/10/12 00:29:59;;;;;;;7.73;2.70;;;;;;;3.89;100.00;97532.09;10416670;28;20188;-79
2022/10/12 00:35:00;;;;;;;8.20;2.53;;;;;;;3.87;100.00;97520.13;10416070;28;20221;-78
2022/10/12 00:40:00;;;;;;;8.93;2.70;;;;;;;3.80;100.00;97519.69;10416144;28;20216;-78
2022/10/12 00:45:01;;;;;;;9.50;2.00;;;;;;;3.70;100.00;97527.19;10416264;28;20215;-78
2022/10/12 00:50:03;;;;;;;13.90;2.60;;;;;;;3.58;100.00;97530.50;10416729;28;20176;-79
2022/10/12 00:55:05;;;;;;;9.23;2.57;;;;;;;3.57;100.00;97526.28;10416283;28;20197;-80
2022/10/12 01:00:07;;;;;;;14.63;2.23;;;;;;;3.60;100.00;97527.84;10415528;28;20220;-78
2022/10/12 01:05:08;;;;;;;10.43;2.50;;;;;;;3.56;100.00;97524.59;10396845;28;20220;-78
2022/10/12 01:10:09;;;;;;;9.30;2.40;;;;;;;3.48;100.00;97527.66;10397083;28;20188;-78
2022/10/12 01:15:10;;;;;;;14.87;2.30;;;;;;;3.49;100.00;97521.56;10414606;28;20188;-78
2022/10/12 01:20:31;;;;;;;17.33;4.13;;;;;;;3.42;100.00;97517.66;10396943;28;20595;-78
2022/10/12 01:25:40;;;;;;;16.07;2.27;;;;;;;3.51;100.00;97526.66;10396879;28;20189;-78
2022/10/12 01:30:43;;;;;;;5.47;2.23;;;;;;;3.48;100.00;97521.66;10414994;28;20189;-78
2022/10/12 01:36:00;;;;;;;9.50;2.23;;;;;;;3.38;100.00;97521.34;10397576;28;20251;-78
2022/10/12 01:41:05;;;;;;;12.37;2.60;;;;;;;3.29;100.00;97512.41;10397465;28;20212;-79
2022/10/12 01:46:15;;;;;;;11.23;2.40;;;;;;;3.22;100.00;97517.09;10397886;28;20215;-79
2022/10/12 01:51:35;;;;;;;10.30;2.73;;;;;;;3.20;100.00;97520.69;10415772;28;20297;-80
2022/10/12 01:56:50;;;;;;;12.97;2.77;;;;;;;3.16;100.00;97514.03;10412872;28;20200;-79
2022/10/12 02:01:55;;;;;;;12.40;2.70;;;;;;;3.09;100.00;97513.53;10411866;28;20326;-79
2022/10/12 02:07:20;;;;;;;9.40;2.30;;;;;;;3.11;100.00;97511.72;10394244;28;20196;-79
2022/10/12 02:12:22;;;;;;;6.10;1.70;;;;;;;3.12;100.00;97513.38;10411122;28;20201;-79
2022/10/12 02:17:23;;;;;;;3.53;1.67;;;;;;;3.09;100.00;97510.97;10394136;28;20189;-80
2022/10/12 02:22:35;;;;;;;9.77;1.90;;;;;;;3.07;100.00;97510.22;10393701;28;20196;-78
2022/10/12 02:27:41;;;;;;;9.73;2.17;;;;;;;3.02;100.00;97513.09;10393859;28;20562;-79
2022/10/12 02:32:57;;;;;;;18.47;2.60;;;;;;;2.92;100.00;97508.53;10393682;28;20196;-79
2022/10/12 02:38:08;;;;;;;11.50;2.40;;;;;;;2.84;100.00;97508.97;10392942;28;20727;-79
2022/10/12 02:43:15;;;;;;;6.87;2.53;;;;;;;2.77;100.00;97503.34;10393100;28;20215;-79
2022/10/12 02:48:19;;;;;;;13.43;5.83;;;;;;;2.79;100.00;97513.59;10392948;28;20268;-79
2022/10/12 02:53:20;;;;;;;14.47;5.83;;;;;;;2.78;100.00;97506.75;10410334;28;20188;-79
2022/10/12 02:58:20;;;;;;;11.43;5.17;;;;;;;2.66;100.00;97508.28;10392821;28;20689;-79
2022/10/12 03:03:21;;;;;;;9.60;4.00;;;;;;;2.70;100.00;97507.19;10420362;28;20207;-79
2022/10/12 03:08:21;;;;;;;12.60;2.37;;;;;;;2.58;100.00;97505.31;10447969;28;20318;-79
2022/10/12 03:13:22;;;;;;;9.50;2.53;;;;;;;2.60;100.00;97511.22;10446792;28;20188;-79
2022/10/12 03:18:22;;;;;;;6.23;2.57;;;;;;;2.64;100.00;97508.34;10446541;28;20748;-79
2022/10/12 03:23:22;;;;;;;7.40;2.20;;;;;;;2.68;100.00;97514.22;10446484;28;20562;-79
2022/10/12 03:28:23;;;;;;;7.53;2.30;;;;;;;2.77;100.00;97505.06;10446994;28;20194;-79
2022/10/12 03:33:23;;;;;;;10.33;2.57;;;;;;;2.80;100.00;97502.31;10446806;28;20238;-79
2022/10/12 03:38:24;;;;;;;9.53;1.93;;;;;;;2.85;100.00;97490.78;10428420;28;20227;-78
2022/10/12 03:43:24;;;;;;;7.20;1.63;;;;;;;2.82;100.00;97496.13;10446741;28;20267;-79
2022/10/12 03:48:24;;;;;;;11.27;2.60;;;;;;;2.82;100.00;97488.38;10447203;28;20203;-80
2022/10/12 03:53:25;;;;;;;8.97;3.20;;;;;;;2.76;100.00;97496.47;10446738;28;20670;-79
2022/10/12 03:58:25;;;;;;;10.90;2.67;;;;;;;2.76;100.00;97486.13;10446359;28;20216;-79
2022/10/12 04:03:26;;;;;;;12.50;3.10;;;;;;;2.71;100.00;97495.94;10448348;28;20781;-79
2022/10/12 04:08:27;;;;;;;16.90;2.80;;;;;;;2.72;100.00;97476.06;10449515;28;20188;-79
2022/10/12 04:13:27;;;;;;;5.57;2.03;;;;;;;2.73;100.00;97488.06;10419486;28;20247;-79
2022/10/12 04:18:28;;;;;;;9.00;2.33;;;;;;;2.74;100.00;97493.16;10408723;28;20708;-80
2022/10/12 04:23:28;;;;;;;7.53;2.93;;;;;;;2.72;100.00;97487.22;10408318;28;20760;-79
2022/10/12 04:28:28;;;;;;;11.57;2.80;;;;;;;2.68;100.00;97484.00;10396397;28;20189;-79
2022/10/12 04:33:29;;;;;;;15.13;2.93;;;;;;;2.72;100.00;97482.06;10415819;28;20188;-79
2022/10/12 04:38:29;;;;;;;7.40;2.60;;;;;;;2.75;100.00;97486.22;10415123;28;20232;-79
2022/10/12 04:43:29;;;;;;;10.77;2.60;;;;;;;2.75;100.00;97481.06;10415544;28;20604;-79
2022/10/12 04:48:30;;;;;;;12.27;3.23;;;;;;;2.74;100.00;97480.22;10415360;28;20184;-80
2022/10/12 04:53:31;;;;;;;10.27;2.77;;;;;;;2.75;100.00;97491.41;10415518;28;20212;-79
2022/10/12 04:58:32;;;;;;;8.40;2.40;;;;;;;2.85;100.00;97488.19;10415399;28;20581;-79
2022/10/12 05:03:32;;;;;;;7.37;2.47;;;;;;;2.75;100.00;97481.88;10414875;28;20203;-79
2022/10/12 05:08:33;;;;;;;8.23;2.90;;;;;;;2.77;100.00;97489.53;10414551;28;20649;-79
2022/10/12 05:13:33;;;;;;;12.33;3.03;;;;;;;2.74;100.00;97495.75;10414749;28;20192;-79
2022/10/12 05:18:33;;;;;;;8.87;2.80;;;;;;;2.78;100.00;97489.47;10414473;28;20299;-79
2022/10/12 05:23:34;;;;;;;5.90;2.60;;;;;;;2.87;100.00;97489.88;10414124;28;20243;-80
2022/10/12 05:28:34;;;;;;;15.13;3.37;;;;;;;2.76;100.00;97488.72;10414229;28;20668;-79
2022/10/12 05:33:34;;;;;;;9.53;3.10;;;;;;;2.63;100.00;97483.44;10413587;28;20523;-80
2022/10/12 05:38:35;;;;;;;8.27;2.37;;;;;;;2.71;100.00;97485.56;10412432;28;20267;-80
2022/10/12 05:43:35;;;;;;;10.77;3.00;;;;;;;2.71;100.00;97490.75;10395561;28;20283;-80
2022/10/12 05:48:36;;;;;;;6.73;2.97;;;;;;;2.64;100.00;97499.78;10396195;28;20192;-80
2022/10/12 05:53:36;;;;;;;12.23;2.97;;;;;;;2.70;100.00;97498.59;10378874;28;20415;-77
2022/10/12 05:58:37;;;;;;;8.77;2.63;;;;;;;2.78;100.00;97502.41;10413125;28;20216;-77
2022/10/12 06:03:37;;;;;;;6.80;3.10;;;;;;;2.81;100.00;97494.44;10413052;28;20207;-77
2022/10/12 06:08:38;;;;;;;14.03;2.80;;;;;;;2.78;100.00;97499.81;10414737;28;20203;-80
2022/10/12 06:13:38;;;;;;;9.43;3.00;;;;;;;2.75;100.00;97502.56;10425663;28;20198;-80
2022/10/12 06:18:39;;;;;;;5.53;2.87;;;;;;;2.83;100.00;97495.22;10453091;28;20285;-80
2022/10/12 06:23:39;;;;;;;8.20;2.77;;;;;;;2.98;100.00;97503.81;10451913;28;20190;-79
2022/10/12 06:28:40;;;;;;;8.70;3.23;;;;;;;3.16;100.00;97511.44;10404386;28;20181;-79
2022/10/12 06:33:40;;;;;;;9.83;2.83;;;;;;;3.51;100.00;97503.34;10411068;28;20200;-78
2022/10/12 06:38:40;;;;;;;8.03;3.03;;;;;;;3.82;100.00;97489.31;10410890;28;20243;-79
2022/10/12 06:43:41;;;;;;;5.40;2.60;;;;;;;4.03;100.00;97494.09;10409508;28;20198;-79
2022/10/12 06:48:41;;;;;;;6.63;2.20;;;;;;;4.38;100.00;97489.28;10410779;28;20646;-79
2022/10/12 06:53:42;;;;;;;10.20;3.27;;;;;;;4.75;100.00;97489.47;10406128;28;20204;-79
2022/10/12 06:58:42;;;;;;;7.57;2.43;;;;;;;5.17;100.00;97497.09;10416797;28;20254;-79
2022/10/12 07:03:43;;;;;;;4.10;2.00;;;;;;;5.61;100.00;97489.81;10422030;28;20583;-78
2022/10/12 07:08:43;;;;;;;7.13;2.37;;;;;;;5.78;100.00;97488.66;10428595;28;20718;-78
2022/10/12 07:13:43;;;;;;;8.70;2.47;;;;;;;6.30;100.00;97490.16;10412235;28;20562;-77
2022/10/12 07:18:44;;;;;;;12.00;2.80;;;;;;;6.72;100.00;97479.34;10367653;28;20295;-78
2022/10/12 07:23:44;;;;;;;11.07;2.83;;;;;;;6.79;100.00;97480.56;10367348;28;20197;-78
2022/10/12 07:28:46;;;;;;;6.97;2.13;;;;;;;7.53;100.00;97468.94;10367839;28;20193;-77
2022/10/12 07:33:46;;;;;;;7.73;2.73;;;;;;;7.60;100.00;97460.53;10367064;28;20204;-78
2022/10/12 07:38:47;;;;;;;8.17;3.23;;;;;;;8.27;100.00;97444.84;10366812;28;20233;-79
2022/10/12 07:43:53;;;;;;;15.17;3.13;;;;;;;8.40;100.00;97445.53;10367362;28;20193;-80
2022/10/12 07:48:54;;;;;;;9.03;2.70;;;;;;;9.73;100.00;97421.41;10377312;28;20667;-78
2022/10/12 07:53:54;;;;;;;8.27;2.50;;;;;;;10.03;100.00;97417.06;10406106;28;20199;-80
2022/10/12 07:58:55;;;;;;;9.97;2.40;;;;;;;10.27;100.00;97407.00;10408315;28;20209;-79
2022/10/12 08:03:57;;;;;;;8.80;2.63;;;;;;;11.28;97.15;97392.69;10414657;28;20201;-80
2022/10/12 08:08:58;;;;;;;5.75;2.22;;;;;;;12.27;87.51;97339.47;10416440;28;20556;-80
2022/10/12 08:13:59;;;;;;;9.68;2.25;;;;;;;11.56;90.98;97396.13;10414579;28;20196;-81
2022/10/12 08:18:59;;;;;;;8.75;1.92;;;;;;;13.09;87.76;97381.25;10415786;28;20223;-79
2022/10/12 08:24:00;;;;;;;6.47;2.28;;;;;;;14.94;76.06;97288.84;10415600;28;20200;-79
2022/10/12 08:29:02;;;;;;;7.72;2.22;;;;;;;15.91;70.26;97258.69;10413660;28;20185;-79
2022/10/12 08:34:03;;;;;;;5.45;2.35;;;;;;;17.22;64.49;97224.78;10414393;28;20275;-80
2022/10/12 08:39:05;;;;;;;13.30;4.35;;;;;;;16.53;66.34;97262.13;10414525;28;20240;-80
2022/10/12 08:44:32;;;;;;;8.50;5.07;;;;;;;15.67;65.29;97239.34;10414418;28;20246;-80
2022/10/12 08:49:33;;;;;;;5.97;2.83;;;;;;;16.65;62.85;97220.19;10397159;28;20258;-79
2022/10/12 08:54:38;;;;;;;8.90;2.53;;;;;;;17.86;55.95;97141.03;10413788;28;20562;-80
2022/10/12 08:59:38;;;;;;;11.93;2.63;;;;;;;18.72;54.40;97124.84;10394554;28;20224;-81
2022/10/12 09:04:50;;;;;;;7.18;2.45;;;;;;;19.75;51.78;97123.03;10395985;28;20605;-82
2022/10/12 09:10:24;;;;;;;7.68;2.47;;;;;;;20.25;49.75;97104.78;10395413;28;20622;-82
2022/10/12 09:15:33;;;;;;;6.43;2.20;;;;;;;20.90;46.69;97074.66;10393990;28;20193;-82
2022/10/12 09:20:41;;;;;;;10.65;2.85;;;;;;;17.92;52.97;97129.69;10411327;28;20377;-82
2022/10/12 09:25:41;;;;;;;9.38;2.92;;;;;;;20.05;49.03;97101.38;10403892;28;20185;-79
2022/10/12 09:30:46;;;;;;;9.43;2.20;;;;;;;20.85;49.31;97141.88;10394849;28;20223;-79
2022/10/12 09:35:47;;;;;;;6.43;2.33;;;;;;;20.51;49.32;97132.38;10410780;28;20318;-79
2022/10/12 09:40:47;;;;;;;9.65;2.80;;;;;;;19.36;49.15;97104.22;10395149;28;20197;-79
2022/10/12 09:45:48;;;;;;;13.07;2.72;;;;;;;18.41;49.45;97085.53;10378188;28;20200;-79
2022/10/12 09:50:57;;;;;;;6.75;2.47;;;;;;;19.59;47.33;97073.78;10394420;28;20228;-79
2022/10/12 09:56:11;;;;;;;6.35;2.30;;;;;;;19.25;46.44;97043.72;10394023;28;20208;-78
2022/10/12 10:01:40;;;;;;;5.10;2.08;;;;;;;18.66;47.82;97066.44;10395536;28;20188;-86
2022/10/12 10:06:43;;;;;;;9.93;2.67;;;;;;;17.37;52.11;97134.72;10453300;28;20208;-78
2022/10/12 10:11:44;;;;;;;7.60;2.20;;;;;;;17.59;51.65;97121.44;10434254;28;20215;-79
2022/10/12 10:16:49;;;;;;;9.13;2.25;;;;;;;17.64;50.28;97074.84;10425917;28;20189;-79
2022/10/12 10:21:49;;;;;;;8.52;2.40;;;;;;;18.71;50.66;97136.50;10427161;28;20184;-79
2022/10/12 10:27:02;;;;;;;10.38;2.20;;;;;;;18.62;47.91;97073.16;10415970;28;20183;-79
2022/10/12 10:32:25;;;;;;;8.73;2.30;;;;;;;19.00;47.45;97064.72;10410460;28;20259;-79
2022/10/12 10:37:25;;;;;;;6.20;2.30;;;;;;;16.29;54.14;97131.78;10435423;28;20298;-79
2022/10/12 10:43:17;;;;;;;7.53;2.40;;;;;;;17.03;51.31;97095.66;10456763;28;20184;-79
2022/10/12 10:48:27;;;;;;;12.43;2.47;;;;;;;17.14;52.55;97129.59;10447999;28;20213;-78
2022/10/12 10:53:46;;;;;;;6.32;2.30;;;;;;;18.77;50.94;97137.50;10398006;28;20189;-79
2022/10/12 10:58:49;;;;;;;4.70;2.00;;;;;;;19.54;48.79;97097.47;10409448;28;20258;-79
2022/10/12 11:03:58;;;;;;;5.43;2.22;;;;;;;20.28;46.71;97076.97;10430013;28;20222;-79
2022/10/12 11:09:04;;;;;;;10.43;2.55;;;;;;;21.44;43.55;97029.84;10434080;28;20227;-78
2022/10/12 11:14:10;;;;;;;5.20;1.95;;;;;;;21.51;43.95;97048.47;10425394;28;20671;-77
2022/10/12 11:19:15;;;;;;;8.30;2.42;;;;;;;20.79;47.37;97102.78;10449481;28;20223;-78
2022/10/12 11:24:32;;;;;;;9.00;2.63;;;;;;;21.02;47.87;97114.78;10431820;28;20196;-78
2022/10/12 11:29:35;;;;;;;10.43;2.95;;;;;;;21.93;47.84;97131.41;10432013;28;20266;-77
2022/10/12 11:34:57;;;;;;;9.63;2.60;;;;;;;21.89;46.68;97092.84;10421806;28;20191;-76
2022/10/12 11:39:59;;;;;;;7.28;2.67;;;;;;;22.26;46.74;97092.91;10350189;28;20642;-77
2022/10/12 11:45:01;;;;;;;12.48;3.03;;;;;;;23.30;43.02;97034.03;10350348;28;20204;-78
2022/10/12 11:50:14;;;;;;;6.45;2.22;;;;;;;23.17;43.69;97044.13;10349277;28;20272;-77
2022/10/12 11:55:36;;;;;;;5.28;2.08;;;;;;;24.22;40.55;96995.19;10349486;28;20202;-77
2022/10/12 12:00:54;;;;;;;9.27;2.63;;;;;;;23.07;40.21;96938.56;10349902;28;20193;-77
2022/10/12 12:05:54;;;;;;;6.90;2.35;;;;;;;23.90;42.22;97023.41;10358309;28;20720;-77
2022/10/12 12:11:05;;;;;;;11.43;3.00;;;;;;;23.31;39.77;96930.63;10349608;28;20291;-77
2022/10/12 12:16:11;;;;;;;8.77;2.85;;;;;;;22.08;43.05;96985.13;10367606;28;20216;-77
2022/10/12 12:21:12;;;;;;;9.73;2.95;;;;;;;22.27;42.41;96966.44;10367128;28;20955;-78
2022/10/12 12:26:17;;;;;;;12.02;3.08;;;;;;;20.33;47.16;97034.56;10349346;28;20288;-77
2022/10/12 12:31:21;;;;;;;7.80;3.45;;;;;;;19.37;45.58;96950.94;10366733;28;20314;-78
2022/10/12 12:36:29;;;;;;;10.52;3.78;;;;;;;20.06;48.37;97055.13;10379752;28;20335;-78
2022/10/12 12:41:52;;;;;;;10.35;3.80;;;;;;;18.13;50.83;97041.34;10390066;28;20216;-78
2022/10/12 12:46:53;;;;;;;8.60;3.22;;;;;;;17.10;54.78;97110.59;10408669;28;20673;-77
2022/10/12 12:51:56;;;;;;;11.52;4.15;;;;;;;16.89;54.29;97097.34;10414818;28;20319;-77
2022/10/12 12:57:29;;;;;;;9.32;4.03;;;;;;;17.13;54.58;97112.06;10414311;28;20251;-76
2022/10/12 13:02:51;;;;;;;9.73;3.78;;;;;;;20.51;47.58;97049.06;10396533;28;20283;-76
2022/10/12 13:07:56;;;;;;;10.13;3.65;;;;;;;20.62;45.80;97001.25;10415930;28;20263;-76
2022/10/12 13:13:16;;;;;;;8.40;4.10;;;;;;;20.59;47.89;97065.56;10455002;28;20668;-76
2022/10/12 13:18:46;;;;;;;8.32;4.20;;;;;;;19.82;49.12;97062.75;10437202;28;20192;-76
2022/10/12 13:23:49;;;;;;;10.43;4.75;;;;;;;17.60;53.63;97094.78;10435887;28;20199;-76
2022/10/12 13:28:50;;;;;;;9.20;3.75;;;;;;;20.13;49.07;97063.91;10437109;28;20230;-76
2022/10/12 13:34:15;;;;;;;14.25;4.57;;;;;;;16.87;55.88;97124.00;10437787;28;20196;-76
2022/10/12 13:40:12;;;;;;;10.05;3.60;;;;;;;18.48;51.58;97073.13;10453935;28;20267;-76
2022/10/12 13:45:14;;;;;;;9.73;3.90;;;;;;;20.23;46.92;97002.25;10454404;28;20192;-76
2022/10/12 13:50:19;;;;;;;12.55;3.58;;;;;;;22.23;43.86;96984.72;10438236;28;20231;-77
2022/10/12 13:55:24;;;;;;;14.02;4.30;;;;;;;21.64;44.18;96965.72;10454279;28;20222;-76
2022/10/12 14:00:25;;;;;;;17.63;4.95;;;;;;;20.48;45.27;96943.81;10452746;28;20574;-76
2022/10/12 14:05:27;;;;;;;8.70;2.85;;;;;;;19.96;46.97;96975.78;10435589;28;20200;-75
2022/10/12 14:10:35;;;;;;;8.02;2.97;;;;;;;20.36;47.23;96988.91;10411623;28;20216;-76
2022/10/12 14:15:38;;;;;;;13.30;3.55;;;;;;;18.64;49.68;96983.56;10405627;28;20191;-76
2022/10/12 14:20:38;;;;;;;7.15;3.17;;;;;;;18.56;50.30;97012.91;10400634;28;20555;-76
2022/10/12 14:25:50;;;;;;;9.35;3.22;;;;;;;17.80;54.30;97076.38;10410817;28;20192;-76
2022/10/12 14:30:51;;;;;;;12.48;3.55;;;;;;;18.78;51.91;97051.56;10417314;28;20216;-76
2022/10/12 14:36:11;;;;;;;10.02;3.50;;;;;;;17.56;53.38;97043.16;10432241;28;20235;-76
2022/10/12 14:41:33;;;;;;;10.10;3.20;;;;;;;18.45;52.91;97056.75;10453114;28;20690;-76
2022/10/12 14:46:55;;;;;;;8.65;3.65;;;;;;;17.01;54.94;97057.97;10468578;28;20188;-76
2022/10/12 14:51:58;;;;;;;11.27;4.07;;;;;;;18.48;52.85;97046.59;10412968;28;20239;-76
2022/10/12 14:57:12;;;;;;;13.05;3.35;;;;;;;18.86;51.43;97024.84;10393957;28;20193;-77
2022/10/12 15:02:18;;;;;;;10.70;3.53;;;;;;;18.36;52.44;97025.13;10393206;28;20189;-76
2022/10/12 15:07:21;;;;;;;7.03;3.13;;;;;;;16.28;59.55;97113.47;10409790;28;20275;-76
2022/10/12 15:12:23;;;;;;;12.82;4.18;;;;;;;16.71;58.07;97092.47;10408682;28;20223;-76
2022/10/12 15:17:23;;;;;;;76.85;45.92;;;;;;;15.98;60.13;97108.97;10403765;28;20653;-77
2022/10/12 15:22:25;;;;;;;12.88;4.38;;;;;;;14.44;66.03;97180.03;10431354;28;20188;-77
2022/10/12 15:27:26;;;;;;;30.70;14.77;;;;;;;13.34;69.64;97213.84;10450773;28;20598;-78
2022/10/12 15:32:26;;;;;;;15.57;8.20;;;;;;;13.02;71.61;97212.72;10416940;28;20304;-77
2022/10/12 15:37:30;;;;;;;14.85;5.53;;;;;;;12.83;73.26;97205.91;10427675;28;20231;-77
2022/10/12 15:42:30;;;;;;;16.90;9.63;;;;;;;12.56;74.62;97202.53;10450087;28;20239;-77
2022/10/12 15:47:33;;;;;;;46.38;26.83;;;;;;;12.45;75.34;97202.78;10433654;28;20856;-75
2022/10/12 15:52:33;;;;;;;17.77;8.05;;;;;;;12.37;77.11;97208.00;10419491;28;20219;-78
2022/10/12 15:57:34;;;;;;;11.90;4.35;;;;;;;12.15;79.09;97211.97;10404722;28;20199;-78
2022/10/12 16:02:34;;;;;;;13.23;4.85;;;;;;;11.85;80.47;97208.75;10448655;28;20188;-79
2022/10/12 16:07:34;;;;;;;12.52;5.15;;;;;;;11.10;85.54;97222.16;10431997;28;20191;-79
2022/10/12 16:12:35;;;;;;;18.88;5.40;;;;;;;10.71;89.50;97218.75;10428285;28;20707;-81
2022/10/12 16:17:35;;;;;;;12.13;5.60;;;;;;;10.49;94.50;97224.34;10409244;28;20270;-81
2022/10/12 16:22:37;;;;;;;18.17;8.47;;;;;;;10.40;97.34;97218.22;10453266;28;20204;-81
2022/10/12 16:27:38;;;;;;;20.30;9.10;;;;;;;10.05;100.00;97237.97;10458621;28;20195;-80
2022/10/12 16:32:39;;;;;;;16.03;7.07;;;;;;;9.89;100.00;97233.31;10459200;28;20215;-81
2022/10/12 16:37:39;;;;;;;17.97;6.37;;;;;;;9.73;100.00;97233.03;10439580;28;20232;-80
2022/10/12 16:42:40;;;;;;;19.97;8.57;;;;;;;9.41;100.00;97247.19;10457371;28;20637;-81
2022/10/12 16:54:03;;;;;;;11.23;5.53;;;;;;;9.19;100.00;97248.22;10451536;28;20184;-82
2022/10/12 16:59:04;;;;;;;14.50;6.87;;;;;;;9.10;100.00;97247.28;10460895;28;20184;-80
2022/10/12 17:04:04;;;;;;;19.53;6.63;;;;;;;9.00;100.00;97255.06;10458236;28;20690;-82
2022/10/12 17:09:05;;;;;;;17.03;7.00;;;;;;;8.85;100.00;97252.03;10440719;28;20683;-82
2022/10/12 17:14:29;;;;;;;13.87;6.40;;;;;;;8.69;100.00;97254.28;10450877;28;20191;-81
2022/10/12 17:19:31;;;;;;;12.20;6.97;;;;;;;8.57;100.00;97249.16;10439517;28;20184;-81
2022/10/12 17:24:34;;;;;;;18.57;7.40;;;;;;;8.49;100.00;97251.56;10458045;28;20188;-81
2022/10/12 17:29:35;;;;;;;18.73;7.20;;;;;;;8.28;100.00;97253.34;10457949;28;20310;-82
2022/10/12 17:34:38;;;;;;;14.83;6.67;;;;;;;8.23;100.00;97252.94;10454671;28;20187;-83
2022/10/12 17:39:42;;;;;;;17.70;6.40;;;;;;;8.11;100.00;97258.19;10437189;28;20259;-80
2022/10/12 17:44:42;;;;;;;16.57;6.33;;;;;;;7.96;100.00;97252.50;10440430;28;20233;-81
2022/10/12 17:49:43;;;;;;;19.27;6.93;;;;;;;7.88;100.00;97254.06;10455969;28;20744;-81
2022/10/12 17:54:45;;;;;;;14.80;5.80;;;;;;;7.84;100.00;97251.72;10439347;28;20203;-81
2022/10/12 17:59:45;;;;;;;13.80;6.60;;;;;;;7.73;100.00;97245.72;10422252;28;20215;-80
2022/10/12 18:04:45;;;;;;;18.47;7.97;;;;;;;7.70;100.00;97252.00;10421546;28;20187;-81
2022/10/12 18:09:46;;;;;;;18.73;7.57;;;;;;;7.62;100.00;97244.78;10457011;28;20245;-81
2022/10/12 18:14:46;;;;;;;13.17;6.50;;;;;;;7.60;100.00;97251.09;10443996;28;20195;-82
2022/10/12 18:19:47;;;;;;;13.87;6.67;;;;;;;7.52;100.00;97245.66;10454915;28;20192;-81
2022/10/12 18:24:49;;;;;;;16.47;6.73;;;;;;;7.48;100.00;97247.69;10438323;28;20672;-83
2022/10/12 18:29:50;;;;;;;19.70;7.97;;;;;;;7.48;100.00;97251.13;10454535;28;20223;-83
2022/10/12 18:34:52;;;;;;;18.60;7.77;;;;;;;7.60;100.00;97238.88;10453683;28;20188;-80
2022/10/12 18:39:53;;;;;;;16.43;7.73;;;;;;;7.50;100.00;97241.44;10453593;28;20663;-81
2022/10/12 18:44:53;;;;;;;14.93;6.70;;;;;;;7.47;100.00;97241.66;10454700;28;20189;-82
2022/10/12 18:49:53;;;;;;;20.00;7.63;;;;;;;7.62;100.00;97250.00;10476356;28;20210;-82
2022/10/12 18:54:55;;;;;;;18.23;8.07;;;;;;;7.47;100.00;97246.03;10466707;28;20200;-81
2022/10/12 18:59:55;;;;;;;22.07;8.80;;;;;;;7.25;100.00;97241.72;10458408;28;20180;-81
2022/10/12 19:04:56;;;;;;;20.70;8.70;;;;;;;7.19;100.00;97242.22;10450167;28;20184;-80
2022/10/12 19:09:56;;;;;;;17.40;8.23;;;;;;;7.18;100.00;97241.38;10450392;28;20227;-82
2022/10/12 19:14:57;;;;;;;19.27;8.33;;;;;;;7.29;100.00;97245.75;10453034;28;20246;-81
2022/10/12 19:20:01;;;;;;;17.37;8.60;;;;;;;7.34;100.00;97254.03;10452076;28;20192;-81
2022/10/12 19:25:02;;;;;;;17.33;8.60;;;;;;;7.38;100.00;97244.16;10451744;28;20194;-81
2022/10/12 19:30:03;;;;;;;18.70;8.40;;;;;;;7.38;100.00;97239.81;10451402;28;20215;-81
2022/10/12 19:35:04;;;;;;;19.03;8.17;;;;;;;7.35;100.00;97239.22;10455065;28;20219;-81
2022/10/12 19:40:05;;;;;;;20.37;7.83;;;;;;;7.41;100.00;97223.91;10450912;28;20261;-81
2022/10/12 19:45:06;;;;;;;16.97;8.30;;;;;;;7.35;100.00;97219.22;10433471;28;20191;-82
2022/10/12 19:50:07;;;;;;;20.77;9.80;;;;;;;7.38;100.00;97212.91;10451087;28;20791;-81
2022/10/12 19:55:07;;;;;;;19.37;9.07;;;;;;;7.48;100.00;97219.03;10443635;28;20552;-82
2022/10/12 20:00:09;;;;;;;21.37;9.13;;;;;;;7.44;100.00;97215.84;10459645;28;20652;-79
2022/10/12 20:05:12;;;;;;;18.37;8.90;;;;;;;7.46;100.00;97219.16;10459222;28;20589;-79
2022/10/12 20:10:12;;;;;;;18.53;8.37;;;;;;;7.48;100.00;97208.59;10423988;28;20222;-80
2022/10/12 20:15:12;;;;;;;24.23;9.27;;;;;;;7.35;100.00;97214.00;10416699;28;20241;-81
2022/10/12 20:20:13;;;;;;;19.40;7.80;;;;;;;7.41;100.00;97223.91;10446761;28;20195;-81
2022/10/12 20:25:13;;;;;;;17.97;7.67;;;;;;;7.37;100.00;97225.13;10440773;28;20215;-82
2022/10/12 20:30:14;;;;;;;24.97;8.37;;;;;;;7.22;100.00;97226.34;10458041;28;20695;-81
2022/10/12 20:35:14;;;;;;;20.93;8.90;;;;;;;7.16;100.00;97226.84;10440067;28;20236;-80
2022/10/12 20:40:15;;;;;;;20.37;8.57;;;;;;;7.08;100.00;97230.06;10457449;28;20214;-81
2022/10/12 20:45:15;;;;;;;21.47;10.17;;;;;;;6.97;100.00;97223.09;10458041;28;20187;-80
2022/10/12 20:50:16;;;;;;;20.57;9.70;;;;;;;7.08;100.00;97220.44;10457020;28;20223;-81
2022/10/12 20:55:16;;;;;;;21.33;9.63;;;;;;;7.04;100.00;97215.59;10457452;28;20184;-80
2022/10/12 21:00:16;;;;;;;21.03;8.40;;;;;;;7.12;100.00;97221.88;10456483;28;20245;-80
2022/10/12 21:05:17;;;;;;;24.43;9.17;;;;;;;7.12;100.00;97219.25;10438525;28;20195;-80
2022/10/12 21:10:17;;;;;;;15.13;8.57;;;;;;;7.22;100.00;97219.34;10456572;28;20309;-81
2022/10/12 21:15:17;;;;;;;19.07;9.13;;;;;;;7.17;100.00;97212.84;10421555;28;20195;-80
2022/10/12 21:20:19;;;;;;;24.40;9.73;;;;;;;7.04;100.00;97211.22;10456583;28;20184;-80
2022/10/12 21:25:19;;;;;;;16.27;8.43;;;;;;;7.15;100.00;97215.56;10437769;28;20183;-81
2022/10/12 21:30:20;;;;;;;15.10;8.53;;;;;;;7.01;100.00;97208.84;10455653;28;20676;-81
2022/10/12 21:35:20;;;;;;;18.13;9.27;;;;;;;7.12;100.00;97210.59;10455627;28;20247;-81
2022/10/12 21:40:21;;;;;;;23.03;9.27;;;;;;;7.12;100.00;97205.38;10436582;28;20207;-80
2022/10/12 21:45:21;;;;;;;19.70;9.73;;;;;;;7.08;100.00;97198.78;10455357;28;20196;-81
2022/10/12 21:50:21;;;;;;;22.53;10.37;;;;;;;7.04;100.00;97203.41;10454956;28;20227;-80
2022/10/12 21:55:22;;;;;;;26.23;9.90;;;;;;;7.03;100.00;97200.91;10420256;28;20221;-82
2022/10/12 22:00:22;;;;;;;19.13;10.70;;;;;;;7.16;100.00;97206.00;10454098;28;20180;-80
2022/10/12 22:05:23;;;;;;;22.43;10.23;;;;;;;7.27;100.00;97214.63;10454337;28;20554;-81
2022/10/12 22:10:23;;;;;;;18.13;9.13;;;;;;;7.32;100.00;97211.63;10454036;28;20892;-81
2022/10/12 22:15:23;;;;;;;18.50;8.33;;;;;;;7.45;100.00;97201.84;10454293;28;20253;-81
2022/10/12 22:20:24;;;;;;;23.03;9.17;;;;;;;7.53;100.00;97208.22;10453078;28;20229;-81
2022/10/12 22:25:26;;;;;;;18.07;9.40;;;;;;;7.43;100.00;97202.94;10436082;28;20199;-82
2022/10/12 22:30:26;;;;;;;16.03;8.70;;;;;;;7.50;100.00;97198.88;10453483;28;20234;-82
2022/10/12 22:35:26;;;;;;;18.93;8.57;;;;;;;7.53;100.00;97203.81;10452873;28;20600;-82
2022/10/12 22:40:27;;;;;;;16.07;8.47;;;;;;;7.55;100.00;97195.88;10453320;28;20222;-81
2022/10/12 22:45:27;;;;;;;21.60;8.47;;;;;;;7.60;100.00;97191.13;10450810;28;20184;-81
2022/10/12 22:50:27;;;;;;;13.40;8.33;;;;;;;7.60;100.00;97191.13;10452131;28;20219;-82
2022/10/12 22:55:28;;;;;;;20.47;9.03;;;;;;;7.61;100.00;97180.59;10451638;28;20200;-81
2022/10/12 23:00:28;;;;;;;21.13;7.37;;;;;;;7.71;100.00;97180.63;10433915;28;20719;-81
2022/10/12 23:05:29;;;;;;;16.90;8.57;;;;;;;7.80;100.00;97176.44;10452400;28;20226;-81
2022/10/12 23:10:29;;;;;;;12.83;6.93;;;;;;;7.83;100.00;97179.63;10434123;28;20701;-81
2022/10/12 23:15:32;;;;;;;15.83;8.47;;;;;;;7.91;100.00;97175.56;10453807;28;20209;-81
2022/10/12 23:20:33;;;;;;;19.23;8.57;;;;;;;8.17;100.00;97173.34;10440072;28;20675;-80
2022/10/12 23:25:35;;;;;;;14.93;7.60;;;;;;;8.21;100.00;97172.16;10456071;28;20191;-80
2022/10/12 23:30:38;;;;;;;16.93;7.77;;;;;;;8.21;100.00;97178.19;10451528;28;20227;-82